Time;durP1;ratioP1;P1;durP2;ratioP2;P2;SDS_P1;SDS_P2;PMS_P1;PMS_P2;Temp;Humidity;BMP_temperature;BMP_pressure;BME280_temperature;BME280_humidity;BME280_pressure;Samples;Min_cycle;Max_cycle;Signal;HPM_P1;HPM_P2
2021/10/13 00:02:09;;;;;;;;;;;;;;;8.30;93.68;98844.97;4990153;28;863;-72
2021/10/13 00:04:36;;;;;;;;;;;;;;;8.28;93.97;98836.34;4990117;28;795;-73
2021/10/13 00:07:03;;;;;;;;;;;;;;;8.27;93.66;98843.06;4990069;28;870;-72
2021/10/13 00:09:29;;;;;;;;;;;;;;;8.26;94.03;98844.25;4989942;28;1941;-71
2021/10/13 00:11:56;;;;;;;;;;;;;;;8.27;93.88;98845.81;4990043;28;866;-68
2021/10/13 00:14:23;;;;;;;;;;;;;;;8.24;94.22;98836.41;4990009;28;861;-67
2021/10/13 00:17:03;;;;;;;;;;;;;;;8.25;93.98;98848.19;4989950;28;933;-69
2021/10/13 00:19:30;;;;;;;;;;;;;;;8.22;94.09;98841.53;4990087;28;870;-71
2021/10/13 00:22:01;;;;;;;;;;;;;;;8.23;93.76;98842.31;4990131;28;852;-74
2021/10/13 00:24:30;;;;;;;;;;;;;;;8.22;94.29;98849.03;4973589;28;1327;-72
2021/10/13 00:39:50;;;;;;;;;;;;;;;8.21;93.51;98836.44;4992865;28;1441;-70
2021/10/13 00:42:20;;;;;;;;;;;;;;;8.20;93.88;98854.94;4993576;28;886;-71
2021/10/13 00:44:45;;;;;;;;;;;;;;;8.22;93.69;98846.28;4977210;28;1216;-69
2021/10/13 00:47:15;;;;;;;;;;;;;;;8.21;94.02;98830.94;5003699;28;870;-68
2021/10/13 01:02:13;;;;;;;;;;;;;;;8.21;93.49;98836.44;5015212;28;588;-68
2021/10/13 01:05:13;;;;;;;;;;;;;;;8.21;93.58;98853.72;5015061;28;925;-68
2021/10/13 01:07:43;;;;;;;;;;;;;;;8.22;93.35;98847.03;5014804;28;803;-68
2021/10/13 01:10:25;;;;;;;;;;;;;;;8.19;93.66;98850.59;4996942;28;1970;-69
2021/10/13 01:13:18;;;;;;;;;;;;;;;8.22;93.22;98857.28;5014702;28;827;-72
2021/10/13 01:16:04;;;;;;;;;;;;;;;8.20;93.13;98873.44;5002626;28;1090;-72
2021/10/13 01:18:55;;;;;;;;;;;;;;;8.17;93.80;98856.53;5014636;28;804;-69
2021/10/13 01:21:35;;;;;;;;;;;;;;;8.16;93.69;98856.94;5014563;28;858;-70
2021/10/13 01:36:31;;;;;;;;;;;;;;;8.17;93.33;98897.81;5014638;28;696;-70
2021/10/13 01:38:58;;;;;;;;;;;;;;;8.17;93.43;98900.56;4996422;28;1414;-70
2021/10/13 01:41:26;;;;;;;;;;;;;;;8.17;93.40;98883.25;5013790;28;800;-69
2021/10/13 01:43:54;;;;;;;;;;;;;;;8.15;93.34;98899.41;5013765;28;827;-70
2021/10/13 01:46:22;;;;;;;;;;;;;;;8.15;93.37;98907.66;4996356;28;1434;-69
2021/10/13 01:48:49;;;;;;;;;;;;;;;8.16;93.43;98910.00;4996436;28;1380;-74
2021/10/13 01:51:17;;;;;;;;;;;;;;;8.17;93.17;98908.84;4996249;28;1914;-72
2021/10/13 01:53:44;;;;;;;;;;;;;;;8.20;93.31;98909.22;5013937;28;877;-76
2021/10/13 01:56:15;;;;;;;;;;;;;;;8.17;93.15;98919.03;4996128;28;1205;-76
2021/10/13 01:58:47;;;;;;;;;;;;;;;8.19;92.77;98930.44;4996325;28;1248;-76
2021/10/13 02:01:18;;;;;;;;;;;;;;;8.20;93.04;98928.47;5014160;28;823;-77
2021/10/13 02:03:58;;;;;;;;;;;;;;;8.21;92.89;98941.81;4996671;28;1505;-80
2021/10/13 02:06:43;;;;;;;;;;;;;;;8.23;92.58;98958.72;4996875;28;1435;-78
2021/10/13 02:09:22;;;;;;;;;;;;;;;8.23;92.89;98950.44;4953472;29;1940;-79
2021/10/13 02:11:49;;;;;;;;;;;;;;;8.23;92.95;98960.69;4953601;29;1091;-78
2021/10/13 02:14:16;;;;;;;;;;;;;;;8.23;93.16;98971.69;4953041;29;1440;-77
2021/10/13 02:16:49;;;;;;;;;;;;;;;8.23;93.31;98966.19;4953064;28;1333;-73
2021/10/13 02:19:19;;;;;;;;;;;;;;;8.21;93.28;98985.88;4953208;29;953;-74
2021/10/13 02:21:50;;;;;;;;;;;;;;;8.21;93.27;98983.09;4952961;29;839;-73
2021/10/13 02:24:22;;;;;;;;;;;;;;;8.23;93.24;98993.72;4953121;29;904;-71
2021/10/13 02:26:54;;;;;;;;;;;;;;;8.23;93.32;99001.97;4952706;29;1253;-71
2021/10/13 02:29:21;;;;;;;;;;;;;;;8.23;93.67;99010.25;4953141;29;1902;-70
2021/10/13 02:31:48;;;;;;;;;;;;;;;8.24;93.83;99017.31;4953364;29;851;-70
2021/10/13 02:34:14;;;;;;;;;;;;;;;8.22;93.43;99020.47;4953019;29;852;-69
2021/10/13 02:36:47;;;;;;;;;;;;;;;8.22;93.63;99025.97;4952955;29;831;-69
2021/10/13 02:39:13;;;;;;;;;;;;;;;8.23;93.63;99032.25;4952484;29;1295;-70
2021/10/13 02:41:59;;;;;;;;;;;;;;;8.24;93.52;99031.88;4952693;29;915;-69
2021/10/13 02:44:35;;;;;;;;;;;;;;;8.24;93.80;99037.38;4952637;29;870;-69
2021/10/13 02:47:07;;;;;;;;;;;;;;;8.25;93.80;99041.69;4952818;29;882;-68
2021/10/13 02:49:49;;;;;;;;;;;;;;;8.26;93.88;99042.47;4952360;29;1947;-68
2021/10/13 02:52:19;;;;;;;;;;;;;;;8.27;94.04;99050.31;4952480;29;883;-68
2021/10/13 02:58:06;;;;;;;;;;;;;;;8.30;93.68;99065.22;4952371;29;738;-69
2021/10/13 03:00:35;;;;;;;;;;;;;;;8.32;93.27;99069.16;4952253;29;868;-68
2021/10/13 03:03:07;;;;;;;;;;;;;;;8.34;93.89;99068.75;4952251;29;851;-68
2021/10/13 03:05:36;;;;;;;;;;;;;;;8.35;93.88;99075.84;4952417;29;884;-68
2021/10/13 03:08:05;;;;;;;;;;;;;;;8.36;93.73;99080.94;4952463;29;796;-68
2021/10/13 03:10:33;;;;;;;;;;;;;;;8.33;92.91;99083.72;4952028;29;1886;-68
2021/10/13 03:13:17;;;;;;;;;;;;;;;8.30;93.14;99077.06;4951931;29;1230;-67
2021/10/13 03:15:44;;;;;;;;;;;;;;;8.27;93.08;99085.31;4951906;29;812;-67
2021/10/13 03:18:16;;;;;;;;;;;;;;;8.23;93.02;99082.59;4966719;28;1118;-67
2021/10/13 03:20:42;;;;;;;;;;;;;;;8.21;92.88;99089.69;5012573;28;823;-66
2021/10/13 03:23:12;;;;;;;;;;;;;;;8.18;92.52;99096.78;5012317;28;865;-66
2021/10/13 03:25:45;;;;;;;;;;;;;;;8.15;92.59;99098.38;5012144;28;815;-65
2021/10/13 03:28:14;;;;;;;;;;;;;;;8.19;92.31;99106.59;5012164;28;796;-65
2021/10/13 03:30:43;;;;;;;;;;;;;;;8.22;92.63;99121.56;5012126;28;1890;-65
2021/10/13 03:33:10;;;;;;;;;;;;;;;8.21;92.85;99123.50;5012331;28;808;-65
2021/10/13 03:35:37;;;;;;;;;;;;;;;8.26;92.56;99128.59;5012047;28;884;-64
2021/10/13 03:38:05;;;;;;;;;;;;;;;8.27;92.75;99124.66;5011862;28;1227;-64
2021/10/13 03:40:32;;;;;;;;;;;;;;;8.30;92.44;99137.63;4994446;28;878;-63
2021/10/13 03:55:12;;;;;;;;;;;;;;;8.42;92.34;99141.13;5012111;28;582;-62
2021/10/13 03:57:40;;;;;;;;;;;;;;;8.43;92.07;99140.72;5011969;28;886;-62
2021/10/13 04:00:09;;;;;;;;;;;;;;;8.43;92.22;99150.94;5011810;28;799;-62
2021/10/13 04:02:36;;;;;;;;;;;;;;;8.42;91.92;99144.63;5011260;28;1296;-62
2021/10/13 04:05:04;;;;;;;;;;;;;;;8.42;92.45;99154.88;5011504;28;799;-62
2021/10/13 04:07:32;;;;;;;;;;;;;;;8.43;92.11;99148.16;5011714;28;877;-62
2021/10/13 04:09:59;;;;;;;;;;;;;;;8.44;92.47;99152.50;5011579;28;1951;-63
2021/10/13 04:12:25;;;;;;;;;;;;;;;8.45;92.46;99163.13;4994030;28;1312;-63
2021/10/13 04:14:52;;;;;;;;;;;;;;;8.46;92.01;99167.44;5011655;28;811;-63
2021/10/13 04:17:19;;;;;;;;;;;;;;;8.48;92.00;99175.31;5011958;28;948;-63
2021/10/13 04:19:45;;;;;;;;;;;;;;;8.51;92.42;99174.47;5011629;28;857;-63
2021/10/13 04:22:12;;;;;;;;;;;;;;;8.52;92.25;99174.09;5011592;28;812;-63
2021/10/13 04:24:38;;;;;;;;;;;;;;;8.53;92.56;99183.91;5011482;28;831;-63
2021/10/13 04:27:05;;;;;;;;;;;;;;;8.54;92.56;99187.47;5011502;28;799;-63
2021/10/13 04:29:32;;;;;;;;;;;;;;;8.56;92.47;99199.63;5011585;28;1947;-63
2021/10/13 04:31:59;;;;;;;;;;;;;;;8.59;92.42;99198.03;5011513;28;812;-63
2021/10/13 04:34:26;;;;;;;;;;;;;;;8.61;92.42;99205.91;5011475;28;871;-63
2021/10/13 04:36:53;;;;;;;;;;;;;;;8.61;92.84;99217.72;5011515;28;833;-63
2021/10/13 04:39:19;;;;;;;;;;;;;;;8.62;92.59;99221.25;5011251;28;1255;-63
2021/10/13 04:41:46;;;;;;;;;;;;;;;8.62;92.58;99226.75;5011475;28;783;-63
2021/10/13 04:44:12;;;;;;;;;;;;;;;8.63;92.90;99228.34;5011420;28;819;-63
2021/10/13 04:46:39;;;;;;;;;;;;;;;8.62;92.63;99227.56;5011434;28;843;-63
2021/10/13 04:49:05;;;;;;;;;;;;;;;8.59;92.69;99237.38;5011280;28;1907;-63
2021/10/13 04:51:32;;;;;;;;;;;;;;;8.58;92.69;99235.84;5011398;28;811;-63
2021/10/13 04:53:57;;;;;;;;;;;;;;;8.54;92.90;99240.56;5011392;28;859;-63
2021/10/13 04:56:24;;;;;;;;;;;;;;;8.52;93.11;99245.69;5011313;28;819;-62
2021/10/13 04:58:50;;;;;;;;;;;;;;;8.52;92.91;99250.44;5011300;28;819;-63
2021/10/13 05:01:17;;;;;;;;;;;;;;;8.53;93.49;99252.75;5011168;28;905;-63
2021/10/13 05:03:43;;;;;;;;;;;;;;;8.57;93.23;99263.78;5011470;28;772;-63
2021/10/13 05:06:12;;;;;;;;;;;;;;;8.56;93.39;99260.25;5011187;28;853;-63
2021/10/13 05:08:38;;;;;;;;;;;;;;;8.57;93.10;99263.78;5011546;28;843;-63
2021/10/13 05:18:50;;;;;;;;;;;;;;;8.63;93.31;99291.69;5012072;23;1961;-69
2021/10/13 05:21:16;;;;;;;;;;;;;;;8.63;93.36;99281.44;5014667;28;920;-69
2021/10/13 05:23:43;;;;;;;;;;;;;;;8.65;93.42;99295.59;5014540;28;889;-69
2021/10/13 05:29:24;;;;;;;;;;;;;;;8.67;93.26;99306.22;4973234;28;2288;-67
2021/10/13 05:32:05;;;;;;;;;;;;;;;8.66;93.09;99299.91;4973329;28;925;-67
2021/10/13 05:46:41;;;;;;;;;;;;;;;8.70;92.73;99317.22;4972974;28;638;-67
2021/10/13 05:49:09;;;;;;;;;;;;;;;8.73;92.38;99319.19;4973187;28;1965;-67
2021/10/13 05:51:40;;;;;;;;;;;;;;;8.76;91.94;99320.34;4972946;28;835;-66
2021/10/13 05:54:07;;;;;;;;;;;;;;;8.78;91.49;99320.72;4972898;28;850;-66
2021/10/13 05:56:33;;;;;;;;;;;;;;;8.82;91.33;99329.78;4973020;28;815;-66
2021/10/13 05:59:00;;;;;;;;;;;;;;;8.87;90.02;99318.31;4972775;28;839;-67
2021/10/13 06:01:30;;;;;;;;;;;;;;;8.91;89.04;99321.06;4956567;28;1694;-66
2021/10/13 06:04:01;;;;;;;;;;;;;;;8.92;88.85;99330.91;4972681;28;839;-65
2021/10/13 06:06:32;;;;;;;;;;;;;;;8.90;88.21;99330.53;4972875;28;901;-65
2021/10/13 06:08:57;;;;;;;;;;;;;;;8.91;87.86;99335.63;4972680;28;902;-65
2021/10/13 06:11:29;;;;;;;;;;;;;;;8.94;87.23;99340.34;4972554;28;1938;-65
2021/10/13 06:14:00;;;;;;;;;;;;;;;8.99;87.62;99345.41;4972590;28;906;-65
2021/10/13 06:16:30;;;;;;;;;;;;;;;9.05;87.16;99353.28;4972268;28;886;-65
2021/10/13 06:18:56;;;;;;;;;;;;;;;9.12;86.73;99356.75;4972081;28;1343;-63
2021/10/13 06:21:32;;;;;;;;;;;;;;;9.27;87.50;99353.91;4972392;28;843;-64
2021/10/13 06:23:58;;;;;;;;;;;;;;;9.51;87.25;99365.94;4972730;28;799;-64
2021/10/13 06:26:28;;;;;;;;;;;;;;;9.64;86.99;99364.25;4972611;28;854;-64
2021/10/13 06:28:58;;;;;;;;;;;;;;;9.75;86.58;99369.69;4972041;28;807;-63
2021/10/13 06:31:26;;;;;;;;;;;;;;;9.89;86.47;99377.84;4972158;28;1962;-63
2021/10/13 06:33:54;;;;;;;;;;;;;;;10.04;85.77;99380.50;4972157;28;949;-63
2021/10/13 06:36:21;;;;;;;;;;;;;;;10.12;85.30;99382.00;4955927;28;1513;-63
2021/10/13 06:38:48;;;;;;;;;;;;;;;10.09;84.82;99377.28;4972064;28;892;-62
2021/10/13 06:41:15;;;;;;;;;;;;;;;10.14;84.84;99388.66;4971761;28;835;-63
2021/10/13 06:43:43;;;;;;;;;;;;;;;10.31;85.52;99392.47;4972298;28;866;-62
2021/10/13 06:46:10;;;;;;;;;;;;;;;10.56;84.76;99396.94;4971754;28;839;-62
2021/10/13 06:48:36;;;;;;;;;;;;;;;10.65;84.54;99413.03;4971880;28;846;-62
2021/10/13 06:51:03;;;;;;;;;;;;;;;10.49;83.32;99406.09;4971742;28;1886;-62
2021/10/13 06:53:30;;;;;;;;;;;;;;;10.19;83.51;99409.53;4971742;28;1049;-62
2021/10/13 06:55:57;;;;;;;;;;;;;;;9.96;83.79;99412.91;4971747;28;807;-62
2021/10/13 06:58:25;;;;;;;;;;;;;;;9.92;84.03;99407.44;4971986;28;815;-62
2021/10/13 07:00:51;;;;;;;;;;;;;;;10.07;84.68;99399.00;4971613;28;885;-61
2021/10/13 07:03:19;;;;;;;;;;;;;;;10.39;84.02;99404.22;4971558;28;1265;-62
2021/10/13 07:05:49;;;;;;;;;;;;;;;10.66;83.30;99409.84;4971793;28;855;-61
2021/10/13 07:08:16;;;;;;;;;;;;;;;10.78;82.63;99422.38;4971502;28;858;-61
2021/10/13 07:10:49;;;;;;;;;;;;;;;11.01;82.19;99421.69;4971446;28;1886;-61
2021/10/13 07:13:16;;;;;;;;;;;;;;;11.04;81.65;99429.16;4971418;28;878;-61
2021/10/13 07:15:42;;;;;;;;;;;;;;;10.89;80.73;99433.28;4971338;28;846;-61
2021/10/13 07:18:09;;;;;;;;;;;;;;;10.78;81.39;99436.97;4970895;28;1519;-61
2021/10/13 07:20:36;;;;;;;;;;;;;;;10.78;81.83;99436.19;4971351;28;818;-61
2021/10/13 07:23:05;;;;;;;;;;;;;;;10.64;81.53;99445.41;4971234;28;1022;-61
2021/10/13 07:25:32;;;;;;;;;;;;;;;10.47;81.69;99451.91;4971157;28;838;-61
2021/10/13 07:28:01;;;;;;;;;;;;;;;10.38;82.62;99457.91;4971246;28;798;-61
2021/10/13 07:30:30;;;;;;;;;;;;;;;10.30;82.11;99450.91;4971126;28;1918;-61
2021/10/13 07:32:57;;;;;;;;;;;;;;;10.26;83.19;99448.13;4971405;28;858;-61
2021/10/13 07:35:27;;;;;;;;;;;;;;;10.34;82.96;99457.94;4970922;28;918;-61
2021/10/13 07:37:55;;;;;;;;;;;;;;;10.48;82.53;99456.25;4971411;28;852;-61
2021/10/13 07:40:22;;;;;;;;;;;;;;;10.47;81.88;99455.44;4954026;28;1289;-60
2021/10/13 07:42:49;;;;;;;;;;;;;;;10.56;82.63;99461.31;4971017;28;862;-61
2021/10/13 07:45:18;;;;;;;;;;;;;;;10.77;83.09;99454.72;4970883;28;783;-60
2021/10/13 07:47:45;;;;;;;;;;;;;;;10.77;82.67;99454.72;4970990;28;831;-60
2021/10/13 07:50:12;;;;;;;;;;;;;;;10.85;83.12;99462.97;4970817;28;1953;-61
2021/10/13 07:52:39;;;;;;;;;;;;;;;10.93;82.77;99469.97;4970886;28;869;-60
2021/10/13 07:55:06;;;;;;;;;;;;;;;11.09;82.98;99474.91;4970612;28;948;-61
2021/10/13 07:57:33;;;;;;;;;;;;;;;11.08;82.86;99474.16;4970610;28;859;-61
2021/10/13 08:00:00;;;;;;;;;;;;;;;10.98;82.52;99477.81;4970799;28;819;-61
2021/10/13 08:02:27;;;;;;;;;;;;;;;10.85;83.06;99485.09;4970717;28;855;-60
2021/10/13 08:04:54;;;;;;;;;;;;;;;10.75;83.30;99475.69;4970690;28;907;-61
2021/10/13 08:07:20;;;;;;;;;;;;;;;10.48;83.08;99481.13;4970569;28;899;-60
2021/10/13 08:09:47;;;;;;;;;;;;;;;10.39;83.51;99485.16;4970629;28;1957;-60
2021/10/13 08:12:14;;;;;;;;;;;;;;;10.56;83.48;99482.59;4970485;28;946;-60
2021/10/13 08:14:40;;;;;;;;;;;;;;;10.94;82.81;99477.84;4970427;28;967;-60
2021/10/13 08:17:09;;;;;;;;;;;;;;;11.34;81.88;99478.16;4970490;28;1005;-61
2021/10/13 08:19:36;;;;;;;;;;;;;;;11.95;81.11;99482.84;4970464;28;1318;-61
2021/10/13 08:22:03;;;;;;;;;;;;;;;12.21;80.81;99483.25;4997006;28;819;-61
2021/10/13 08:24:31;;;;;;;;;;;;;;;12.19;79.13;99494.72;5011456;28;887;-60
2021/10/13 08:26:58;;;;;;;;;;;;;;;12.02;80.19;99490.25;5011560;28;865;-60
2021/10/13 08:29:24;;;;;;;;;;;;;;;11.93;79.95;99492.78;5011472;28;1986;-60
2021/10/13 08:31:51;;;;;;;;;;;;;;;12.07;80.28;99487.00;5011522;28;917;-60
2021/10/13 08:34:18;;;;;;;;;;;;;;;12.26;78.88;99491.06;5011399;28;916;-60
2021/10/13 08:36:45;;;;;;;;;;;;;;;12.09;77.59;99472.75;5011479;28;834;-60
2021/10/13 08:39:12;;;;;;;;;;;;;;;11.90;78.52;99477.00;4977655;28;1207;-60
2021/10/13 08:41:38;;;;;;;;;;;;;;;12.16;79.31;99486.47;5011331;28;882;-60
2021/10/13 08:44:05;;;;;;;;;;;;;;;12.26;78.48;99482.75;5011384;28;882;-60
2021/10/13 08:46:31;;;;;;;;;;;;;;;12.15;76.52;99484.91;5011440;28;909;-60
2021/10/13 08:48:58;;;;;;;;;;;;;;;12.01;77.91;99483.16;5011391;28;831;-60
2021/10/13 08:51:24;;;;;;;;;;;;;;;11.89;78.37;99501.16;5012340;28;1886;-60
2021/10/13 08:53:50;;;;;;;;;;;;;;;11.78;78.75;99501.28;5015056;28;859;-60
2021/10/13 08:56:17;;;;;;;;;;;;;;;11.88;79.21;99498.75;5015095;28;823;-60
2021/10/13 08:58:44;;;;;;;;;;;;;;;11.93;78.19;99507.41;5015355;28;803;-59
2021/10/13 09:01:12;;;;;;;;;;;;;;;12.02;79.34;99501.34;5015035;28;885;-59
2021/10/13 09:03:40;;;;;;;;;;;;;;;12.51;79.17;99498.94;5014840;28;933;-59
2021/10/13 09:06:14;;;;;;;;;;;;;;;13.07;78.72;99501.06;5014895;28;822;-59
2021/10/13 09:08:56;;;;;;;;;;;;;;;13.76;75.32;99497.66;5015067;28;830;-60
2021/10/13 09:11:33;;;;;;;;;;;;;;;14.49;72.78;99492.72;5014675;28;1882;-60
2021/10/13 09:14:10;;;;;;;;;;;;;;;14.67;73.47;99500.63;5014720;28;897;-60
2021/10/13 09:16:47;;;;;;;;;;;;;;;14.81;73.02;99500.25;5014791;28;938;-61
2021/10/13 09:19:14;;;;;;;;;;;;;;;14.46;68.49;99490.81;5014349;28;1225;-60
2021/10/13 09:21:51;;;;;;;;;;;;;;;14.20;70.38;99501.00;5014760;28;877;-60
2021/10/13 09:24:18;;;;;;;;;;;;;;;14.23;69.89;99511.22;5014552;28;834;-60
2021/10/13 09:26:45;;;;;;;;;;;;;;;14.17;70.10;99522.09;5014788;28;854;-60
2021/10/13 09:29:12;;;;;;;;;;;;;;;14.30;70.36;99522.19;5014799;28;902;-60
2021/10/13 09:31:38;;;;;;;;;;;;;;;14.28;68.86;99519.84;5014361;28;1969;-60
2021/10/13 09:34:07;;;;;;;;;;;;;;;14.42;68.25;99512.34;4996856;28;561;-60
2021/10/13 09:36:35;;;;;;;;;;;;;;;14.48;69.42;99508.63;5014280;28;960;-60
2021/10/13 09:39:08;;;;;;;;;;;;;;;14.77;68.49;99510.69;5014447;28;862;-60
2021/10/13 09:41:53;;;;;;;;;;;;;;;14.93;68.55;99515.41;5014523;28;1126;-60
2021/10/13 09:44:20;;;;;;;;;;;;;;;14.80;66.58;99525.72;5014187;28;1017;-60
2021/10/13 09:46:49;;;;;;;;;;;;;;;14.67;66.41;99526.44;5014044;28;851;-60
2021/10/13 09:49:36;;;;;;;;;;;;;;;14.66;67.29;99524.88;5014060;28;873;-60
2021/10/13 09:52:04;;;;;;;;;;;;;;;14.80;66.45;99525.72;5013871;28;1296;-60
2021/10/13 09:54:30;;;;;;;;;;;;;;;14.60;65.47;99528.63;5013940;28;866;-60
2021/10/13 09:56:58;;;;;;;;;;;;;;;14.33;66.72;99529.66;5013921;28;870;-60
2021/10/13 09:59:25;;;;;;;;;;;;;;;14.38;64.88;99526.38;5013901;28;914;-60
2021/10/13 10:01:55;;;;;;;;;;;;;;;14.37;64.93;99526.78;5013770;28;944;-60
2021/10/13 10:04:26;;;;;;;;;;;;;;;14.24;64.00;99524.72;5012873;28;942;-60
2021/10/13 10:06:55;;;;;;;;;;;;;;;14.05;65.27;99512.44;5013787;28;897;-59
2021/10/13 10:09:22;;;;;;;;;;;;;;;14.18;65.66;99509.00;5013818;28;1951;-59
2021/10/13 10:12:00;;;;;;;;;;;;;;;14.41;64.21;99508.81;5014083;28;897;-60
2021/10/13 10:14:34;;;;;;;;;;;;;;;14.48;63.42;99508.63;5013864;28;870;-60
2021/10/13 10:17:01;;;;;;;;;;;;;;;14.55;63.09;99504.91;4995876;28;1057;-60
2021/10/13 10:19:30;;;;;;;;;;;;;;;14.93;62.17;99512.63;5013381;28;1469;-60
2021/10/13 10:21:58;;;;;;;;;;;;;;;15.16;62.79;99510.84;4996163;28;2865;-60
2021/10/13 10:24:32;;;;;;;;;;;;;;;15.57;62.06;99515.59;5013693;28;962;-60
2021/10/13 10:27:17;;;;;;;;;;;;;;;15.53;61.77;99528.84;5013376;28;878;-60
2021/10/13 10:29:44;;;;;;;;;;;;;;;15.54;63.50;99524.84;5013303;28;1891;-60
2021/10/13 10:32:18;;;;;;;;;;;;;;;15.65;63.00;99514.16;5013560;28;921;-60
2021/10/13 10:35:03;;;;;;;;;;;;;;;15.87;64.10;99519.91;5013176;28;954;-60
2021/10/13 10:37:48;;;;;;;;;;;;;;;16.25;62.03;99515.50;5013183;28;846;-60
2021/10/13 10:40:22;;;;;;;;;;;;;;;15.90;63.79;99526.59;5012963;28;932;-60
2021/10/13 10:42:56;;;;;;;;;;;;;;;15.54;64.34;99533.19;5013146;28;799;-60
2021/10/13 10:45:46;;;;;;;;;;;;;;;15.23;64.28;99535.69;5012897;28;957;-60
2021/10/13 10:48:13;;;;;;;;;;;;;;;15.14;65.11;99538.31;5012933;28;2187;-60
2021/10/13 10:50:42;;;;;;;;;;;;;;;15.25;60.84;99544.38;5012997;28;1955;-60
2021/10/13 10:53:31;;;;;;;;;;;;;;;15.21;62.14;99538.91;5012827;28;938;-60
2021/10/13 10:56:00;;;;;;;;;;;;;;;15.34;60.17;99541.75;5012841;28;878;-60
2021/10/13 10:58:28;;;;;;;;;;;;;;;14.92;60.58;99544.47;5012830;28;803;-60
2021/10/13 11:01:06;;;;;;;;;;;;;;;14.74;62.30;99553.28;5012803;28;807;-60
2021/10/13 11:03:36;;;;;;;;;;;;;;;14.82;61.82;99542.75;5012583;28;914;-59
2021/10/13 11:06:11;;;;;;;;;;;;;;;15.06;61.82;99540.50;5013019;28;991;-60
2021/10/13 11:09:00;;;;;;;;;;;;;;;15.14;61.74;99543.91;5012527;28;954;-60
2021/10/13 11:11:28;;;;;;;;;;;;;;;14.98;61.15;99531.59;5012243;28;1882;-59
2021/10/13 11:13:56;;;;;;;;;;;;;;;14.70;62.09;99541.47;5012562;28;850;-59
2021/10/13 11:16:22;;;;;;;;;;;;;;;14.57;62.25;99533.03;5012510;28;931;-59
2021/10/13 11:18:49;;;;;;;;;;;;;;;14.54;62.30;99542.25;5012135;28;1249;-59
2021/10/13 11:21:17;;;;;;;;;;;;;;;14.60;62.09;99528.63;5012339;28;830;-59
2021/10/13 11:23:45;;;;;;;;;;;;;;;14.78;63.93;99528.94;5012726;28;869;-59
2021/10/13 11:26:12;;;;;;;;;;;;;;;15.21;63.79;99538.91;5012571;28;803;-59
2021/10/13 11:28:39;;;;;;;;;;;;;;;15.32;61.68;99522.69;5012255;28;843;-59
2021/10/13 11:31:08;;;;;;;;;;;;;;;15.17;60.96;99529.88;5012282;28;1915;-59
2021/10/13 11:33:34;;;;;;;;;;;;;;;14.95;61.58;99528.91;5012075;28;903;-59
2021/10/13 11:36:06;;;;;;;;;;;;;;;15.01;61.92;99527.16;4994940;28;874;-59
2021/10/13 11:38:34;;;;;;;;;;;;;;;15.10;62.56;99536.41;5012095;28;868;-59
2021/10/13 11:41:09;;;;;;;;;;;;;;;15.30;62.57;99541.84;5011993;28;819;-59
2021/10/13 11:43:37;;;;;;;;;;;;;;;15.34;61.42;99546.50;5012087;28;839;-59
2021/10/13 11:46:04;;;;;;;;;;;;;;;15.19;62.15;99551.69;5012026;28;842;-59
2021/10/13 11:48:32;;;;;;;;;;;;;;;15.08;64.65;99552.78;5011883;28;946;-59
2021/10/13 11:51:01;;;;;;;;;;;;;;;15.04;65.42;99559.66;5011802;28;1878;-59
2021/10/13 11:53:29;;;;;;;;;;;;;;;14.95;64.06;99562.28;5011854;28;978;-59
2021/10/13 11:55:56;;;;;;;;;;;;;;;14.76;66.39;99563.97;5011918;28;1046;-59
2021/10/13 11:58:24;;;;;;;;;;;;;;;14.69;65.89;99559.38;5011875;28;941;-59
2021/10/13 12:00:51;;;;;;;;;;;;;;;14.48;66.00;99560.66;4994344;28;881;-59
2021/10/13 12:03:18;;;;;;;;;;;;;;;14.25;67.81;99564.41;5011771;28;926;-59
2021/10/13 12:05:45;;;;;;;;;;;;;;;14.11;67.62;99573.09;5011793;28;810;-59
2021/10/13 12:08:15;;;;;;;;;;;;;;;13.97;67.25;99568.63;5011742;28;970;-59
2021/10/13 12:10:47;;;;;;;;;;;;;;;13.99;68.39;99575.31;5011543;28;1902;-59
2021/10/13 12:13:14;;;;;;;;;;;;;;;14.17;69.37;99568.59;5011721;28;815;-59
2021/10/13 12:15:42;;;;;;;;;;;;;;;14.21;68.75;99583.16;5011802;28;831;-59
2021/10/13 12:18:18;;;;;;;;;;;;;;;14.19;67.89;99571.69;5011890;28;1079;-59
2021/10/13 12:20:47;;;;;;;;;;;;;;;13.97;66.87;99583.28;5011908;28;930;-59
2021/10/13 12:23:15;;;;;;;;;;;;;;;13.86;68.33;99589.09;5011568;28;922;-59
2021/10/13 12:25:42;;;;;;;;;;;;;;;13.97;70.25;99593.63;5011696;28;819;-59
2021/10/13 12:28:13;;;;;;;;;;;;;;;14.08;70.44;99594.16;5015495;28;780;-59
2021/10/13 12:30:40;;;;;;;;;;;;;;;14.09;70.51;99585.41;4998023;28;1977;-59
2021/10/13 12:33:08;;;;;;;;;;;;;;;14.19;71.68;99582.81;5015478;28;803;-59
2021/10/13 12:35:34;;;;;;;;;;;;;;;14.35;70.40;99596.72;5015522;28;815;-59
2021/10/13 12:38:02;;;;;;;;;;;;;;;14.47;70.15;99586.94;5015579;28;887;-59
2021/10/13 12:40:28;;;;;;;;;;;;;;;14.42;71.03;99585.44;5015391;28;818;-59
2021/10/13 12:42:55;;;;;;;;;;;;;;;14.24;72.65;99588.63;5015330;28;815;-59
2021/10/13 12:45:25;;;;;;;;;;;;;;;14.03;72.11;99595.47;5015274;28;854;-59
2021/10/13 12:48:12;;;;;;;;;;;;;;;13.89;73.35;99599.34;5015370;28;897;-59
2021/10/13 12:50:39;;;;;;;;;;;;;;;13.83;74.75;99595.50;5015205;28;2319;-59
2021/10/13 12:53:06;;;;;;;;;;;;;;;13.74;73.62;99600.88;5015223;28;901;-59
2021/10/13 12:55:32;;;;;;;;;;;;;;;13.75;74.06;99602.44;5015135;28;846;-59
2021/10/13 12:57:59;;;;;;;;;;;;;;;13.84;74.46;99610.19;5015139;28;798;-59
2021/10/13 13:00:25;;;;;;;;;;;;;;;13.87;73.95;99598.22;5015029;28;885;-59
2021/10/13 13:02:52;;;;;;;;;;;;;;;13.80;74.12;99606.69;5014972;28;814;-59
2021/10/13 13:05:18;;;;;;;;;;;;;;;13.72;74.94;99613.59;5014981;28;827;-59
2021/10/13 13:07:45;;;;;;;;;;;;;;;13.61;75.31;99608.28;5014891;28;850;-59
2021/10/13 13:10:12;;;;;;;;;;;;;;;13.57;75.99;99622.25;5014681;28;1953;-59
2021/10/13 13:12:39;;;;;;;;;;;;;;;13.59;76.88;99614.28;5014665;28;838;-59
2021/10/13 13:15:08;;;;;;;;;;;;;;;13.66;77.25;99618.91;5015073;28;839;-59
2021/10/13 13:17:34;;;;;;;;;;;;;;;13.87;77.44;99626.00;5014981;28;1078;-59
2021/10/13 13:20:01;;;;;;;;;;;;;;;14.16;77.11;99628.91;5014623;28;827;-59
2021/10/13 13:22:28;;;;;;;;;;;;;;;14.36;76.15;99641.97;4996889;28;2121;-59
2021/10/13 13:24:54;;;;;;;;;;;;;;;14.44;76.03;99635.81;5014521;28;959;-59
2021/10/13 13:27:21;;;;;;;;;;;;;;;14.60;75.66;99642.66;5014507;28;823;-59
2021/10/13 13:29:47;;;;;;;;;;;;;;;14.56;73.94;99650.31;5014356;28;1910;-59
2021/10/13 13:32:15;;;;;;;;;;;;;;;14.50;75.29;99644.44;5014458;28;826;-59
2021/10/13 13:34:42;;;;;;;;;;;;;;;14.43;75.45;99650.19;5014495;28;898;-59
2021/10/13 13:37:08;;;;;;;;;;;;;;;14.31;76.02;99657.19;5013966;28;842;-59
2021/10/13 13:39:35;;;;;;;;;;;;;;;14.23;76.66;99664.13;5013317;28;883;-59
2021/10/13 13:42:02;;;;;;;;;;;;;;;14.19;77.62;99657.84;5014215;28;902;-59
2021/10/13 13:44:29;;;;;;;;;;;;;;;14.10;77.81;99664.00;5014273;28;1000;-59
2021/10/13 13:46:55;;;;;;;;;;;;;;;14.00;78.47;99667.81;5014047;28;953;-59
2021/10/13 13:49:22;;;;;;;;;;;;;;;13.93;78.84;99657.59;5014155;28;835;-59
2021/10/13 13:51:49;;;;;;;;;;;;;;;13.92;79.39;99658.81;5014046;28;1957;-59
2021/10/13 13:54:16;;;;;;;;;;;;;;;13.97;79.65;99654.75;5014004;28;812;-59
2021/10/13 13:56:42;;;;;;;;;;;;;;;13.96;79.97;99648.41;5014036;28;859;-59
2021/10/13 13:59:10;;;;;;;;;;;;;;;13.95;80.11;99648.84;5013926;28;851;-59
2021/10/13 14:01:36;;;;;;;;;;;;;;;13.87;80.47;99651.78;5013751;28;966;-59
2021/10/13 14:04:03;;;;;;;;;;;;;;;13.80;80.55;99656.69;5013848;28;875;-59
2021/10/13 14:06:30;;;;;;;;;;;;;;;13.73;80.87;99657.63;5013807;28;851;-59
2021/10/13 14:08:57;;;;;;;;;;;;;;;13.75;81.14;99660.75;5013920;28;885;-59
2021/10/13 14:11:24;;;;;;;;;;;;;;;13.81;81.10;99659.03;4996111;28;1946;-59
2021/10/13 14:13:50;;;;;;;;;;;;;;;13.91;80.98;99659.25;5013592;28;942;-59
2021/10/13 14:16:17;;;;;;;;;;;;;;;13.98;80.93;99656.34;5013342;28;1014;-59
2021/10/13 14:18:45;;;;;;;;;;;;;;;13.98;80.87;99648.78;5013364;28;1417;-59
2021/10/13 14:21:11;;;;;;;;;;;;;;;13.94;80.69;99653.63;5013528;28;874;-59
2021/10/13 14:23:37;;;;;;;;;;;;;;;13.80;80.26;99651.13;5013376;28;1253;-59
2021/10/13 14:26:04;;;;;;;;;;;;;;;13.62;80.32;99663.38;5013427;28;835;-59
2021/10/13 14:28:30;;;;;;;;;;;;;;;13.44;81.04;99668.50;5013370;28;916;-59
2021/10/13 14:30:58;;;;;;;;;;;;;;;13.27;79.85;99678.69;5013084;28;1938;-59
2021/10/13 14:33:25;;;;;;;;;;;;;;;13.10;79.66;99690.88;5013432;28;958;-59
2021/10/13 14:35:51;;;;;;;;;;;;;;;12.94;79.36;99689.56;5013580;28;926;-59
2021/10/13 14:38:18;;;;;;;;;;;;;;;12.82;80.33;99690.94;5013061;28;854;-59